createdAt,value
2022-09-18T00:01:37.181Z,77.48
2022-09-18T00:04:08.039Z,80.30
2022-09-18T00:06:38.502Z,74.76
2022-09-18T00:09:10.086Z,72.66
2022-09-18T00:11:41.438Z,74.63
2022-09-18T00:14:11.646Z,74.43
2022-09-18T00:16:40.791Z,79.00
2022-09-18T00:19:09.615Z,76.39
2022-09-18T00:21:40.037Z,74.85
2022-09-18T00:24:07.802Z,74.54
2022-09-18T00:26:35.889Z,72.96
2022-09-18T00:29:04.799Z,72.42
2022-09-18T00:31:36.039Z,71.90
2022-09-18T00:34:08.060Z,73.26
2022-09-18T00:36:37.764Z,72.47
2022-09-18T00:39:07.309Z,72.27
2022-09-18T00:41:38.774Z,71.61
2022-09-18T00:44:39.932Z,73.96
2022-09-18T00:47:10.249Z,75.15
2022-09-18T00:50:01.429Z,77.43
2022-09-18T00:52:44.890Z,77.59
2022-09-18T00:55:14.207Z,79.32
2022-09-18T00:57:49.852Z,76.53
2022-09-18T01:00:18.333Z,81.70
2022-09-18T01:02:48.932Z,84.75
2022-09-18T01:05:24.043Z,87.12
2022-09-18T01:08:04.384Z,83.75
2022-09-18T01:11:00.845Z,83.33
2022-09-18T01:14:07.261Z,80.75
2022-09-18T01:16:42.856Z,83.78
2022-09-18T01:20:01.787Z,79.49
2022-09-18T01:23:03.896Z,75.18
2022-09-18T01:25:52.168Z,78.14
2022-09-18T01:28:24.520Z,84.65
2022-09-18T01:30:57.686Z,85.62
2022-09-18T01:33:57.397Z,81.67
2022-09-18T01:36:30.662Z,78.03
2022-09-18T01:39:07.053Z,76.03
2022-09-18T01:41:37.671Z,76.43
2022-09-18T01:44:15.888Z,79.86
2022-09-18T01:46:46.165Z,79.04
2022-09-18T01:49:23.891Z,79.81
2022-09-18T01:51:55.328Z,73.92
2022-09-18T01:54:27.529Z,73.48
2022-09-18T01:57:04.156Z,72.27
2022-09-18T02:00:02.874Z,72.79
2022-09-18T02:02:41.511Z,75.54
2022-09-18T02:05:18.891Z,74.33
2022-09-18T02:07:57.378Z,72.11
2022-09-18T02:10:29.251Z,71.35
2022-09-18T02:12:58.246Z,70.90
2022-09-18T02:15:30.713Z,71.90
2022-09-18T02:18:08.791Z,72.31
2022-09-18T02:20:38.717Z,72.68
2022-09-18T02:23:08.683Z,72.36
2022-09-18T02:25:46.252Z,72.01
2022-09-18T02:28:18.173Z,72.15
2022-09-18T02:30:46.234Z,76.65
2022-09-18T02:33:43.627Z,72.36
2022-09-18T02:36:29.581Z,72.48
2022-09-18T02:39:04.911Z,73.39
2022-09-18T02:41:49.314Z,74.90
2022-09-18T02:44:28.002Z,75.13
2022-09-18T02:47:23.585Z,73.92
2022-09-18T02:49:59.555Z,75.10
2022-09-18T02:52:42.331Z,74.62
2022-09-18T02:55:19.987Z,75.04
2022-09-18T02:57:55.627Z,74.05
2022-09-18T03:00:24.854Z,74.00
2022-09-18T03:02:56.950Z,76.52
2022-09-18T03:05:27.296Z,76.29
2022-09-18T03:07:55.197Z,76.75
2022-09-18T03:10:22.915Z,76.80
2022-09-18T03:12:51.402Z,78.32
2022-09-18T03:15:19.162Z,76.15
2022-09-18T03:17:46.716Z,79.26
2022-09-18T03:20:14.753Z,77.39
2022-09-18T03:22:42.316Z,77.77
2022-09-18T03:25:13.250Z,77.55
2022-09-18T03:27:43.211Z,77.05
2022-09-18T03:30:12.125Z,78.33
2022-09-18T03:32:39.911Z,77.59
2022-09-18T03:35:08.596Z,87.07
2022-09-18T03:37:36.273Z,77.50
2022-09-18T03:40:04.869Z,83.39
2022-09-18T03:42:33.016Z,78.10
2022-09-18T03:45:01.065Z,79.17
2022-09-18T03:47:31.852Z,84.22
2022-09-18T03:50:02.249Z,78.15
2022-09-18T03:52:31.083Z,76.05
2022-09-18T03:54:59.299Z,82.31
2022-09-18T03:57:31.944Z,76.39
2022-09-18T03:59:59.790Z,74.83
2022-09-18T04:02:27.780Z,75.40
2022-09-18T04:05:07.291Z,74.18
2022-09-18T04:07:45.471Z,73.96
2022-09-18T04:10:15.929Z,73.36
2022-09-18T04:12:48.067Z,73.70
2022-09-18T04:15:16.901Z,73.78
2022-09-18T04:17:44.531Z,73.31
2022-09-18T04:20:12.342Z,72.94
2022-09-18T04:22:45.007Z,72.41
2022-09-18T04:25:12.750Z,72.30
2022-09-18T04:27:41.093Z,72.23
2022-09-18T04:30:09.492Z,76.28
2022-09-18T04:32:39.257Z,72.53
2022-09-18T04:35:10.822Z,71.34
2022-09-18T04:37:38.879Z,71.64
2022-09-18T04:40:07.982Z,71.16
2022-09-18T04:42:37.946Z,70.41
2022-09-18T04:45:06.948Z,70.61
2022-09-18T04:47:35.305Z,70.39
2022-09-18T04:50:09.150Z,70.66
2022-09-18T04:52:57.115Z,70.08
2022-09-18T04:55:25.983Z,69.58
2022-09-18T04:57:55.827Z,70.56
2022-09-18T05:00:23.668Z,68.99
2022-09-18T05:02:51.610Z,68.91
2022-09-18T05:05:21.512Z,71.13
2022-09-18T05:07:49.728Z,68.77
2022-09-18T05:10:21.760Z,68.27
2022-09-18T05:15:39.408Z,67.54
2022-09-18T05:18:11.944Z,67.38
2022-09-18T05:20:40.185Z,66.99
2022-09-18T05:23:09.086Z,66.80
2022-09-18T05:25:37.325Z,66.58
2022-09-18T05:28:06.505Z,65.90
2022-09-18T05:30:35.766Z,65.64
2022-09-18T05:33:07.656Z,65.42
2022-09-18T05:35:40.022Z,65.86
2022-09-18T05:38:09.181Z,66.50
2022-09-18T05:40:40.013Z,66.01
2022-09-18T05:43:09.885Z,65.51
2022-09-18T05:45:39.524Z,65.64
2022-09-18T05:48:08.368Z,65.01
2022-09-18T05:50:39.145Z,65.58
2022-09-18T05:53:10.701Z,65.46
2022-09-18T05:55:41.965Z,64.84
2022-09-18T05:58:16.333Z,64.86
2022-09-18T06:00:47.828Z,64.64
2022-09-18T06:03:17.320Z,63.71
2022-09-18T06:05:53.024Z,62.85
2022-09-18T06:08:22.220Z,62.21
2022-09-18T06:10:50.504Z,62.11
2022-09-18T06:13:19.263Z,62.39
2022-09-18T06:15:50.501Z,61.80
2022-09-18T06:18:21.219Z,61.43
2022-09-18T06:20:54.692Z,60.94
2022-09-18T06:23:26.030Z,61.83
2022-09-18T06:25:58.653Z,61.41
2022-09-18T06:28:26.884Z,60.83
2022-09-18T06:30:55.611Z,60.93
2022-09-18T06:33:23.285Z,60.67
2022-09-18T06:38:37.995Z,61.64
2022-09-18T06:41:06.022Z,60.58
2022-09-18T06:46:27.996Z,60.65
2022-09-18T06:48:55.797Z,59.91
2022-09-18T06:51:23.845Z,60.74
2022-09-18T06:53:53.673Z,61.80
2022-09-18T06:56:21.336Z,61.35
2022-09-18T06:58:52.046Z,62.35
2022-09-18T07:01:20.080Z,60.92
2022-09-18T07:03:51.294Z,60.68
2022-09-18T07:06:22.864Z,60.48
2022-09-18T07:08:53.686Z,60.56
2022-09-18T07:11:22.078Z,60.68
2022-09-18T07:13:50.309Z,61.02
2022-09-18T07:16:18.392Z,61.62
2022-09-18T07:18:48.971Z,61.64
2022-09-18T07:21:21.276Z,61.30
2022-09-18T07:23:48.990Z,61.26
2022-09-18T07:26:17.081Z,61.72
2022-09-18T07:28:46.834Z,61.18
2022-09-18T07:31:15.144Z,61.14
2022-09-18T07:33:44.190Z,63.98
2022-09-18T07:36:16.178Z,62.59
2022-09-18T07:38:44.331Z,66.20
2022-09-18T07:41:12.398Z,68.36
2022-09-18T07:43:40.293Z,63.34
2022-09-18T07:46:08.502Z,64.97
2022-09-18T07:48:39.087Z,65.37
2022-09-18T07:51:07.138Z,65.79
2022-09-18T07:53:37.771Z,71.40
2022-09-18T07:56:11.908Z,68.66
2022-09-18T07:58:40.498Z,70.04
2022-09-18T08:01:10.681Z,67.15
2022-09-18T08:03:41.425Z,66.35
2022-09-18T08:06:26.802Z,69.08
2022-09-18T08:08:55.373Z,67.60
2022-09-18T08:11:23.293Z,69.30
2022-09-18T08:13:53.938Z,64.21
2022-09-18T08:16:22.626Z,63.29
2022-09-18T08:18:58.753Z,62.55
2022-09-18T08:21:32.590Z,65.38
2022-09-18T08:24:00.966Z,62.86
2022-09-18T08:26:30.574Z,66.90
2022-09-18T08:28:58.244Z,63.86
2022-09-18T08:31:26.858Z,65.74
2022-09-18T08:33:55.505Z,69.80
2022-09-18T08:36:23.311Z,66.42
2022-09-18T08:38:56.263Z,65.79
2022-09-18T08:41:47.534Z,66.45
2022-09-18T08:44:40.165Z,64.87
2022-09-18T08:47:30.994Z,65.72
2022-09-18T08:50:05.751Z,66.32
2022-09-18T08:52:41.403Z,66.57
2022-09-18T08:55:30.645Z,64.55
2022-09-18T08:58:11.833Z,66.41
2022-09-18T09:00:55.732Z,64.80
2022-09-18T09:03:23.872Z,65.86
2022-09-18T09:06:35.842Z,68.36
2022-09-18T09:09:14.238Z,64.89
2022-09-18T09:12:28.095Z,64.77
2022-09-18T09:15:21.856Z,66.91
2022-09-18T09:18:07.443Z,66.40
2022-09-18T09:20:55.300Z,64.40
2022-09-18T09:23:25.943Z,64.42
2022-09-18T09:26:11.873Z,66.85
2022-09-18T09:28:48.933Z,68.31
2022-09-18T09:31:20.994Z,67.27
2022-09-18T09:34:18.677Z,67.21
2022-09-18T09:36:54.401Z,66.06
2022-09-18T09:39:36.577Z,66.33
2022-09-18T09:42:18.547Z,65.98
2022-09-18T09:44:55.502Z,66.11
2022-09-18T09:47:32.007Z,68.66
2022-09-18T09:50:06.153Z,72.49
2022-09-18T09:52:37.336Z,71.47
2022-09-18T09:55:32.348Z,70.51
2022-09-18T09:58:10.698Z,72.00
2022-09-18T10:01:04.378Z,73.30
2022-09-18T10:03:47.536Z,70.25
2022-09-18T10:06:37.261Z,75.32
2022-09-18T10:09:13.260Z,73.44
2022-09-18T10:11:45.601Z,74.36
2022-09-18T10:14:20.174Z,75.22
2022-09-18T10:16:51.905Z,73.69
2022-09-18T10:19:23.237Z,70.32
2022-09-18T10:21:54.343Z,70.47
2022-09-18T10:24:57.285Z,77.19
2022-09-18T10:27:31.600Z,76.22
2022-09-18T10:30:00.316Z,71.59
2022-09-18T10:32:38.329Z,78.98
2022-09-18T10:35:43.794Z,72.53
2022-09-18T10:38:32.561Z,77.05
2022-09-18T10:44:28.446Z,76.59
2022-09-18T10:47:27.600Z,80.47
2022-09-18T10:49:59.154Z,80.24
2022-09-18T10:52:34.701Z,83.34
2022-09-18T10:55:09.417Z,77.21
2022-09-18T10:57:44.080Z,84.23
2022-09-18T11:00:20.573Z,80.73
2022-09-18T11:02:54.931Z,76.12
2022-09-18T11:05:32.563Z,78.09
2022-09-18T11:08:23.960Z,79.51
2022-09-18T11:11:02.133Z,85.31
2022-09-18T11:13:32.745Z,78.21
2022-09-18T11:16:03.468Z,79.08
2022-09-18T11:18:33.276Z,83.61
2022-09-18T11:21:05.546Z,79.50
2022-09-18T11:23:35.905Z,85.81
2022-09-18T11:26:11.926Z,86.62
2022-09-18T11:28:41.516Z,85.52
2022-09-18T11:31:19.494Z,89.44
2022-09-18T11:33:57.715Z,82.30
2022-09-18T11:36:30.379Z,83.83
2022-09-18T11:39:02.051Z,85.15
2022-09-18T11:41:40.298Z,81.49
2022-09-18T11:44:18.431Z,80.42
2022-09-18T11:47:03.020Z,88.62
2022-09-18T11:49:36.384Z,83.71
2022-09-18T11:52:06.270Z,81.35
2022-09-18T11:54:47.132Z,87.24
2022-09-18T11:57:38.133Z,78.06
2022-09-18T12:00:11.710Z,78.77
2022-09-18T12:02:52.883Z,82.27
2022-09-18T12:05:29.845Z,86.23
2022-09-18T12:08:19.624Z,81.63
2022-09-18T12:11:16.172Z,81.04
2022-09-18T12:14:04.409Z,81.70
2022-09-18T12:16:53.534Z,82.57
2022-09-18T12:19:48.653Z,83.28
2022-09-18T12:22:30.171Z,80.86
2022-09-18T12:24:59.117Z,85.74
2022-09-18T12:27:31.703Z,86.77
2022-09-18T12:30:19.861Z,88.54
2022-09-18T12:33:08.007Z,84.05
2022-09-18T12:35:57.646Z,85.98
2022-09-18T12:38:42.579Z,84.28
2022-09-18T12:41:26.900Z,90.02
2022-09-18T12:44:03.751Z,91.76
2022-09-18T12:46:46.679Z,87.37
2022-09-18T12:49:36.459Z,90.56
2022-09-18T12:52:27.644Z,86.30
2022-09-18T12:55:21.014Z,91.69
2022-09-18T12:58:26.440Z,88.27
2022-09-18T13:00:56.376Z,84.88
2022-09-18T13:03:37.179Z,86.89
2022-09-18T13:06:12.324Z,88.21
2022-09-18T13:08:52.463Z,82.74
2022-09-18T13:11:40.206Z,80.56
2022-09-18T13:14:17.736Z,83.70
2022-09-18T13:16:55.018Z,82.75
2022-09-18T13:19:32.750Z,80.81
2022-09-18T13:24:55.452Z,86.39
2022-09-18T13:27:26.217Z,88.33
2022-09-18T13:29:53.929Z,84.22
2022-09-18T13:32:23.152Z,87.28
2022-09-18T13:38:14.886Z,85.84
2022-09-18T13:40:58.814Z,88.39
2022-09-18T13:43:45.955Z,93.35
2022-09-18T13:46:40.071Z,94.14
2022-09-18T13:49:40.239Z,86.62
2022-09-18T13:52:33.563Z,85.43
2022-09-18T13:55:13.570Z,86.74
2022-09-18T13:57:42.304Z,91.85
2022-09-18T14:00:33.117Z,87.75
2022-09-18T14:03:07.308Z,89.25
2022-09-18T14:05:35.011Z,89.64
2022-09-18T14:08:07.941Z,91.27
2022-09-18T14:10:39.982Z,84.87
2022-09-18T14:13:23.025Z,84.49
2022-09-18T14:16:24.854Z,83.94
2022-09-18T14:19:04.462Z,87.85
2022-09-18T14:21:40.205Z,84.85
2022-09-18T14:24:37.519Z,92.40
2022-09-18T14:27:33.690Z,80.30
2022-09-18T14:30:15.684Z,81.90
2022-09-18T14:33:11.787Z,80.90
2022-09-18T14:35:58.001Z,89.85
2022-09-18T14:38:32.305Z,80.97
2022-09-18T14:41:19.665Z,86.40
2022-09-18T14:43:56.199Z,87.06
2022-09-18T14:46:26.072Z,85.87
2022-09-18T14:48:54.622Z,83.43
2022-09-18T14:51:28.579Z,83.28
2022-09-18T14:53:59.702Z,82.61
2022-09-18T14:56:30.952Z,82.75
2022-09-18T14:59:03.850Z,81.58
2022-09-18T15:01:34.126Z,85.13
2022-09-18T15:04:05.165Z,81.94
2022-09-18T15:06:40.625Z,83.49
2022-09-18T15:09:13.359Z,80.39
2022-09-18T15:12:01.240Z,81.31
2022-09-18T15:14:46.799Z,88.74
2022-09-18T15:17:22.418Z,83.91
2022-09-18T15:20:02.347Z,83.85
2022-09-18T15:22:31.342Z,85.29
2022-09-18T15:25:02.162Z,81.00
2022-09-18T15:27:31.908Z,81.62
2022-09-18T15:29:59.964Z,85.37
2022-09-18T15:32:38.700Z,84.60
2022-09-18T15:35:09.978Z,89.21
2022-09-18T15:37:41.432Z,82.16
2022-09-18T15:40:18.445Z,82.07
2022-09-18T15:42:58.726Z,78.31
2022-09-18T15:45:30.158Z,82.05
2022-09-18T15:48:00.956Z,79.30
2022-09-18T15:50:30.295Z,80.18
2022-09-18T15:52:58.458Z,81.77
2022-09-18T15:55:32.130Z,85.17
2022-09-18T15:58:26.728Z,80.10
2022-09-18T16:00:58.547Z,79.46
2022-09-18T16:03:30.405Z,81.46
2022-09-18T16:06:02.785Z,81.23
2022-09-18T16:08:37.185Z,78.04
2022-09-18T16:11:06.745Z,83.93
2022-09-18T16:13:39.209Z,80.35
2022-09-18T16:16:12.602Z,86.86
2022-09-18T16:18:55.222Z,78.47
2022-09-18T16:21:28.257Z,80.12
2022-09-18T16:24:04.015Z,82.96
2022-09-18T16:26:33.264Z,81.79
2022-09-18T16:29:05.382Z,86.49
2022-09-18T16:31:36.263Z,81.66
2022-09-18T16:34:26.438Z,82.74
2022-09-18T16:36:58.671Z,78.57
2022-09-18T16:39:27.819Z,90.67
2022-09-18T16:41:55.565Z,85.83
2022-09-18T16:44:25.379Z,87.06
2022-09-18T16:46:59.514Z,82.03
2022-09-18T16:49:31.012Z,87.62
2022-09-18T16:51:59.244Z,88.67
2022-09-18T16:54:27.095Z,82.27
2022-09-18T16:56:58.862Z,80.81
2022-09-18T16:59:30.332Z,82.30
2022-09-18T17:02:04.243Z,79.52
2022-09-18T17:04:34.610Z,79.95
2022-09-18T17:07:03.366Z,81.78
2022-09-18T17:09:31.788Z,79.72
2022-09-18T17:12:00.349Z,77.48
2022-09-18T17:14:28.202Z,78.74
2022-09-18T17:16:56.157Z,79.55
2022-09-18T17:19:24.493Z,80.66
2022-09-18T17:21:52.723Z,80.99
2022-09-18T17:24:26.505Z,85.16
2022-09-18T17:26:55.208Z,76.53
2022-09-18T17:29:23.197Z,78.30
2022-09-18T17:31:52.680Z,78.64
2022-09-18T17:34:22.446Z,79.97
2022-09-18T17:36:50.722Z,77.64
2022-09-18T17:39:18.891Z,79.28
2022-09-18T17:41:47.310Z,78.21
2022-09-18T17:44:16.143Z,82.29
2022-09-18T17:46:44.820Z,82.21
2022-09-18T17:49:13.424Z,82.46
2022-09-18T17:51:41.496Z,78.21
2022-09-18T17:54:10.802Z,78.32
2022-09-18T17:56:39.495Z,76.30
2022-09-18T17:59:10.087Z,78.26
2022-09-18T18:01:44.788Z,79.56
2022-09-18T18:04:18.623Z,79.50
2022-09-18T18:06:49.015Z,78.36
2022-09-18T18:09:17.565Z,81.79
2022-09-18T18:11:46.601Z,79.89
2022-09-18T18:14:15.095Z,77.25
2022-09-18T18:16:43.813Z,77.46
2022-09-18T18:19:15.842Z,75.85
2022-09-18T18:21:44.598Z,78.24
2022-09-18T18:24:15.771Z,81.96
2022-09-18T18:26:46.208Z,76.28
2022-09-18T18:29:18.319Z,80.68
2022-09-18T18:31:49.529Z,80.16
2022-09-18T18:34:22.692Z,80.64
2022-09-18T18:36:51.308Z,77.53
2022-09-18T18:39:20.382Z,80.61
2022-09-18T18:41:50.120Z,76.25
2022-09-18T18:44:18.919Z,79.28
2022-09-18T18:46:46.877Z,77.28
2022-09-18T18:49:17.006Z,77.10
2022-09-18T18:51:49.210Z,81.26
2022-09-18T18:54:19.453Z,78.20
2022-09-18T18:56:49.299Z,78.02
2022-09-18T18:59:19.720Z,77.71
2022-09-18T19:01:48.270Z,79.02
2022-09-18T19:04:19.568Z,78.59
2022-09-18T19:06:49.476Z,77.14
2022-09-18T19:09:22.117Z,77.01
2022-09-18T19:11:52.089Z,79.74
2022-09-18T19:14:30.042Z,79.36
2022-09-18T19:16:58.585Z,77.13
2022-09-18T19:19:28.653Z,76.85
2022-09-18T19:22:02.348Z,77.07
2022-09-18T19:24:30.846Z,79.93
2022-09-18T19:26:59.372Z,78.98
2022-09-18T19:29:28.650Z,76.99
2022-09-18T19:31:57.939Z,77.06
2022-09-18T19:34:25.707Z,76.90
2022-09-18T19:36:54.012Z,76.63
2022-09-18T19:39:24.284Z,81.33
2022-09-18T19:41:59.502Z,77.50
2022-09-18T19:44:54.309Z,76.51
2022-09-18T19:47:41.319Z,79.19
2022-09-18T19:50:23.221Z,78.08
2022-09-18T19:52:51.592Z,78.42
2022-09-18T19:55:21.126Z,79.21
2022-09-18T19:57:50.358Z,76.21
2022-09-18T20:05:09.940Z,79.65
2022-09-18T20:07:38.799Z,80.09
2022-09-18T20:10:12.780Z,76.32
2022-09-18T20:12:42.859Z,79.97
2022-09-18T20:15:11.572Z,77.96
2022-09-18T20:17:39.565Z,77.51
2022-09-18T20:20:09.020Z,79.52
2022-09-18T20:22:39.999Z,80.02
2022-09-18T20:25:09.332Z,76.53
2022-09-18T20:27:40.878Z,76.42
2022-09-18T20:30:12.800Z,77.73
2022-09-18T20:32:41.445Z,76.94
2022-09-18T20:35:10.253Z,76.53
2022-09-18T20:37:37.992Z,76.92
2022-09-18T20:40:10.592Z,76.65
2022-09-18T20:42:38.635Z,78.53
2022-09-18T20:45:07.639Z,76.96
2022-09-18T20:47:37.234Z,79.27
2022-09-18T20:50:10.862Z,80.45
2022-09-18T20:52:43.302Z,79.40
2022-09-18T20:55:17.677Z,86.53
2022-09-18T20:57:46.683Z,81.44
2022-09-18T21:00:25.166Z,77.24
2022-09-18T21:02:53.656Z,84.63
2022-09-18T21:05:22.334Z,80.62
2022-09-18T21:07:57.621Z,86.49
2022-09-18T21:10:25.662Z,81.59
2022-09-18T21:12:53.355Z,96.20
2022-09-18T21:15:21.135Z,95.79
2022-09-18T21:17:49.968Z,94.95
2022-09-18T21:20:17.744Z,96.86
